createdAt,value
2019-01-17T00:00:46.439Z,0.00
2019-01-17T00:01:46.404Z,0.00
2019-01-17T00:02:46.380Z,0.00
2019-01-17T00:03:46.334Z,0.00
2019-01-17T00:04:46.303Z,0.00
2019-01-17T00:05:46.264Z,0.00
2019-01-17T00:06:46.230Z,0.00
2019-01-17T00:07:46.188Z,0.00
2019-01-17T00:08:46.149Z,0.00
2019-01-17T00:09:46.111Z,0.00
2019-01-17T00:10:46.079Z,0.00
2019-01-17T00:11:46.035Z,0.00
2019-01-17T00:12:46.011Z,0.00
2019-01-17T00:13:45.983Z,0.00
2019-01-17T00:14:45.930Z,0.00
2019-01-17T00:15:45.911Z,0.00
2019-01-17T00:16:45.864Z,0.00
2019-01-17T00:17:45.833Z,0.00
2019-01-17T00:18:45.790Z,0.00
2019-01-17T00:19:45.754Z,0.00
2019-01-17T00:20:45.719Z,0.00
2019-01-17T00:21:45.685Z,0.00
2019-01-17T00:22:45.649Z,0.00
2019-01-17T00:23:45.603Z,0.00
2019-01-17T00:24:45.567Z,0.00
2019-01-17T00:25:45.529Z,0.00
2019-01-17T00:26:45.490Z,0.00
2019-01-17T00:27:45.461Z,0.00
2019-01-17T00:28:45.422Z,0.00
2019-01-17T00:29:45.375Z,0.00
2019-01-17T00:30:45.349Z,0.00
2019-01-17T00:31:45.306Z,0.00
2019-01-17T00:32:45.272Z,0.00
2019-01-17T00:33:45.244Z,0.00
2019-01-17T00:34:45.215Z,0.00
2019-01-17T00:35:45.160Z,0.00
2019-01-17T00:36:45.132Z,0.00
2019-01-17T00:37:45.094Z,0.00
2019-01-17T00:38:45.054Z,0.00
2019-01-17T00:39:45.019Z,0.00
2019-01-17T00:40:44.986Z,0.00
2019-01-17T00:41:44.946Z,0.00
2019-01-17T00:42:44.915Z,0.00
2019-01-17T00:43:44.867Z,0.00
2019-01-17T00:44:44.845Z,0.00
2019-01-17T00:45:44.791Z,0.00
2019-01-17T00:46:44.762Z,0.00
2019-01-17T00:47:44.725Z,0.00
2019-01-17T00:48:44.686Z,0.00
2019-01-17T00:49:44.651Z,0.00
2019-01-17T00:50:44.622Z,0.00
2019-01-17T00:51:44.573Z,0.00
2019-01-17T00:52:44.561Z,0.00
2019-01-17T00:53:44.498Z,0.00
2019-01-17T00:54:44.470Z,0.00
2019-01-17T00:55:44.433Z,0.00
2019-01-17T00:56:44.385Z,0.00
2019-01-17T00:57:44.355Z,0.00
2019-01-17T00:58:44.322Z,0.00
2019-01-17T00:59:44.281Z,0.00
2019-01-17T01:00:44.251Z,0.00
2019-01-17T01:01:44.207Z,0.00
2019-01-17T01:02:44.166Z,0.00
2019-01-17T01:03:44.151Z,0.00
2019-01-17T01:04:44.094Z,0.00
2019-01-17T01:05:44.066Z,0.00
2019-01-17T01:06:44.033Z,0.00
2019-01-17T01:07:43.981Z,0.00
2019-01-17T01:08:43.952Z,0.00
2019-01-17T01:09:43.919Z,0.00
2019-01-17T01:10:43.877Z,0.00
2019-01-17T01:11:43.842Z,0.00
2019-01-17T01:12:43.809Z,0.00
2019-01-17T01:13:43.790Z,0.00
2019-01-17T01:14:43.736Z,0.00
2019-01-17T01:15:43.698Z,0.00
2019-01-17T01:16:43.653Z,0.00
2019-01-17T01:17:43.618Z,0.00
2019-01-17T01:18:43.580Z,0.00
2019-01-17T01:19:43.548Z,0.00
2019-01-17T01:20:43.503Z,0.00
2019-01-17T01:21:43.481Z,0.00
2019-01-17T01:22:43.431Z,0.00
2019-01-17T01:23:43.394Z,0.00
2019-01-17T01:24:43.386Z,0.00
2019-01-17T01:25:43.329Z,0.00
2019-01-17T01:26:43.289Z,0.00
2019-01-17T01:27:43.257Z,0.00
2019-01-17T01:28:43.212Z,0.00
2019-01-17T01:29:43.174Z,0.00
2019-01-17T01:30:43.143Z,0.00
2019-01-17T01:31:43.108Z,0.00
2019-01-17T01:32:43.069Z,0.00
2019-01-17T01:33:43.040Z,0.00
2019-01-17T01:34:42.998Z,0.00
2019-01-17T01:35:42.954Z,0.00
2019-01-17T01:36:42.960Z,0.00
2019-01-17T01:37:42.888Z,0.00
2019-01-17T01:38:42.839Z,0.00
2019-01-17T01:39:42.801Z,0.00
2019-01-17T01:40:42.768Z,0.00
2019-01-17T01:41:42.734Z,0.00
2019-01-17T01:42:42.725Z,0.00
2019-01-17T01:43:42.659Z,0.00
2019-01-17T01:44:42.625Z,0.00
2019-01-17T01:45:42.602Z,0.00
2019-01-17T01:46:42.551Z,0.00
2019-01-17T01:47:42.524Z,0.00
2019-01-17T01:48:42.484Z,0.00
2019-01-17T01:49:42.450Z,0.00
2019-01-17T01:50:42.410Z,0.00
2019-01-17T01:51:42.364Z,0.00
2019-01-17T01:52:42.537Z,0.00
2019-01-17T01:53:42.303Z,0.00
2019-01-17T01:54:42.263Z,0.00
2019-01-17T01:55:42.230Z,0.00
2019-01-17T01:56:42.190Z,0.00
2019-01-17T01:57:42.162Z,0.00
2019-01-17T01:58:42.118Z,0.00
2019-01-17T01:59:42.073Z,0.00
2019-01-17T02:00:42.880Z,0.00
2019-01-17T02:01:41.995Z,0.00
2019-01-17T02:02:41.972Z,0.00
2019-01-17T02:03:41.923Z,0.00
2019-01-17T02:04:41.890Z,0.00
2019-01-17T02:05:41.856Z,0.00
2019-01-17T02:06:41.824Z,0.00
2019-01-17T02:07:41.783Z,0.00
2019-01-17T02:08:41.738Z,0.00
2019-01-17T02:09:41.715Z,0.00
2019-01-17T02:10:41.670Z,0.00
2019-01-17T02:11:41.639Z,0.00
2019-01-17T02:12:41.591Z,0.00
2019-01-17T02:13:41.561Z,0.00
2019-01-17T02:14:41.534Z,0.00
2019-01-17T02:15:41.494Z,0.00
2019-01-17T02:16:41.451Z,0.00
2019-01-17T02:17:41.416Z,0.00
2019-01-17T02:18:41.377Z,0.00
2019-01-17T02:19:41.337Z,0.00
2019-01-17T02:20:41.304Z,0.00
2019-01-17T02:21:41.259Z,0.00
2019-01-17T02:22:41.232Z,0.00
2019-01-17T02:23:41.194Z,0.00
2019-01-17T02:24:41.160Z,0.00
2019-01-17T02:25:41.129Z,0.00
2019-01-17T02:26:42.438Z,0.00
2019-01-17T02:27:41.042Z,0.00
2019-01-17T02:28:41.005Z,0.00
2019-01-17T02:29:40.972Z,0.00
2019-01-17T02:30:40.945Z,0.00
2019-01-17T02:31:40.900Z,0.00
2019-01-17T02:32:40.856Z,0.00
2019-01-17T02:33:40.819Z,0.00
2019-01-17T02:34:40.788Z,0.00
2019-01-17T02:35:40.743Z,0.00
2019-01-17T02:36:40.706Z,0.00
2019-01-17T02:37:40.676Z,0.00
2019-01-17T02:38:40.641Z,0.00
2019-01-17T02:39:40.609Z,0.00
2019-01-17T02:40:40.572Z,0.00
2019-01-17T02:41:40.533Z,0.00
2019-01-17T02:42:40.506Z,0.00
2019-01-17T02:43:40.460Z,0.00
2019-01-17T02:44:40.419Z,0.00
2019-01-17T02:45:40.383Z,0.00
2019-01-17T02:46:40.342Z,0.00
2019-01-17T02:47:40.299Z,0.00
2019-01-17T02:48:40.266Z,0.00
2019-01-17T02:49:40.232Z,0.00
2019-01-17T02:50:40.198Z,0.00
2019-01-17T02:51:40.157Z,0.00
2019-01-17T02:52:40.124Z,0.00
2019-01-17T02:53:40.082Z,0.00
2019-01-17T02:54:40.047Z,0.00
2019-01-17T02:55:40.009Z,0.00
2019-01-17T02:56:39.982Z,0.00
2019-01-17T02:57:39.938Z,0.00
2019-01-17T02:58:39.899Z,0.00
2019-01-17T02:59:39.864Z,0.00
2019-01-17T03:00:39.817Z,0.00
2019-01-17T03:01:39.786Z,0.00
2019-01-17T03:02:39.785Z,0.00
2019-01-17T03:03:39.716Z,0.00
2019-01-17T03:04:39.682Z,0.00
2019-01-17T03:05:39.642Z,0.00
2019-01-17T03:06:39.608Z,0.00
2019-01-17T03:07:39.564Z,0.00
2019-01-17T03:08:39.528Z,0.00
2019-01-17T03:09:39.498Z,0.00
2019-01-17T03:10:39.454Z,0.00
2019-01-17T03:11:39.422Z,0.00
2019-01-17T03:12:39.382Z,0.00
2019-01-17T03:13:39.348Z,0.00
2019-01-17T03:14:39.304Z,0.00
2019-01-17T03:15:39.272Z,0.00
2019-01-17T03:16:39.229Z,0.00
2019-01-17T03:17:39.199Z,0.00
2019-01-17T03:18:39.164Z,0.00
2019-01-17T03:19:39.131Z,0.00
2019-01-17T03:20:39.087Z,0.00
2019-01-17T03:21:39.047Z,0.00
2019-01-17T03:22:39.012Z,0.00
2019-01-17T03:23:38.968Z,0.00
2019-01-17T03:24:42.993Z,0.00
2019-01-17T03:25:38.907Z,0.00
2019-01-17T03:26:38.865Z,0.00
2019-01-17T03:27:38.833Z,0.00
2019-01-17T03:28:38.784Z,0.00
2019-01-17T03:29:38.791Z,0.00
2019-01-17T03:30:38.719Z,0.00
2019-01-17T03:31:38.690Z,0.00
2019-01-17T03:32:38.647Z,0.00
2019-01-17T03:33:38.608Z,0.00
2019-01-17T03:34:38.569Z,0.00
2019-01-17T03:35:38.539Z,0.00
2019-01-17T03:36:38.498Z,0.00
2019-01-17T03:37:38.458Z,0.00
2019-01-17T03:38:38.420Z,0.00
2019-01-17T03:39:38.389Z,0.00
2019-01-17T03:40:38.354Z,0.00
2019-01-17T03:41:38.301Z,0.00
2019-01-17T03:42:38.271Z,0.00
2019-01-17T03:43:38.239Z,0.00
2019-01-17T03:44:38.199Z,0.00
2019-01-17T03:45:38.166Z,0.00
2019-01-17T03:46:38.126Z,0.00
2019-01-17T03:47:38.084Z,0.00
2019-01-17T03:48:38.054Z,0.00
2019-01-17T03:49:38.021Z,0.00
2019-01-17T03:50:37.988Z,0.00
2019-01-17T03:51:37.944Z,0.00
2019-01-17T03:52:37.905Z,0.00
2019-01-17T03:53:37.865Z,0.00
2019-01-17T03:54:37.827Z,0.00
2019-01-17T03:55:37.791Z,0.00
2019-01-17T03:56:37.757Z,0.00
2019-01-17T03:57:37.721Z,0.00
2019-01-17T03:58:37.691Z,0.00
2019-01-17T03:59:37.646Z,0.00
2019-01-17T04:00:37.612Z,0.00
2019-01-17T04:01:37.565Z,0.00
2019-01-17T04:02:37.528Z,0.00
2019-01-17T04:03:37.512Z,0.00
2019-01-17T04:04:37.464Z,0.00
2019-01-17T04:05:37.424Z,0.00
2019-01-17T04:06:37.387Z,0.00
2019-01-17T04:07:37.356Z,0.00
2019-01-17T04:08:37.322Z,0.00
2019-01-17T04:09:37.271Z,0.00
2019-01-17T04:10:37.242Z,0.00
2019-01-17T04:11:37.202Z,0.00
2019-01-17T04:12:37.167Z,0.00
2019-01-17T04:13:37.131Z,0.00
2019-01-17T04:14:37.100Z,0.00
2019-01-17T04:15:37.066Z,0.00
2019-01-17T04:16:37.017Z,0.00
2019-01-17T04:17:36.986Z,0.00
2019-01-17T04:18:36.943Z,0.00
2019-01-17T04:19:36.911Z,0.00
2019-01-17T04:20:36.874Z,0.00
2019-01-17T04:21:36.842Z,0.00
2019-01-17T04:22:36.797Z,0.00
2019-01-17T04:23:36.757Z,0.00
2019-01-17T04:24:36.722Z,0.00
2019-01-17T04:25:36.692Z,0.00
2019-01-17T04:26:36.658Z,0.00
2019-01-17T04:27:36.623Z,0.00
2019-01-17T04:28:36.586Z,0.00
2019-01-17T04:29:36.540Z,0.00
2019-01-17T04:30:36.500Z,0.00
2019-01-17T04:31:36.473Z,0.00
2019-01-17T04:32:36.431Z,0.00
2019-01-17T04:33:36.396Z,0.00
2019-01-17T04:34:36.361Z,0.00
2019-01-17T04:35:36.321Z,0.00
2019-01-17T04:36:36.293Z,0.00
2019-01-17T04:37:36.251Z,0.00
2019-01-17T04:38:36.206Z,0.00
2019-01-17T04:39:36.171Z,0.00
2019-01-17T04:40:36.136Z,0.00
2019-01-17T04:41:36.102Z,0.00
2019-01-17T04:42:36.066Z,0.00
2019-01-17T04:43:36.026Z,0.00
2019-01-17T04:44:35.996Z,0.00
2019-01-17T04:45:35.955Z,0.00
2019-01-17T04:46:35.923Z,0.00
2019-01-17T04:47:35.884Z,0.00
2019-01-17T04:48:35.837Z,0.00
2019-01-17T04:49:35.797Z,0.00
2019-01-17T04:50:35.773Z,0.00
2019-01-17T04:51:35.733Z,0.00
2019-01-17T04:52:35.699Z,0.00
2019-01-17T04:53:35.662Z,0.00
2019-01-17T04:54:35.629Z,0.00
2019-01-17T04:55:35.587Z,0.00
2019-01-17T04:56:35.547Z,0.00
2019-01-17T04:57:35.507Z,0.00
2019-01-17T04:58:35.479Z,0.00
2019-01-17T04:59:35.439Z,0.00
2019-01-17T05:00:35.404Z,0.00
2019-01-17T05:01:35.372Z,0.00
2019-01-17T05:02:35.335Z,0.00
2019-01-17T05:03:35.295Z,0.00
2019-01-17T05:04:35.260Z,0.00
2019-01-17T05:05:35.215Z,0.00
2019-01-17T05:06:35.184Z,0.00
2019-01-17T05:07:35.143Z,0.00
2019-01-17T05:08:35.106Z,0.00
2019-01-17T05:09:35.080Z,0.00
2019-01-17T05:10:35.044Z,0.00
2019-01-17T05:11:35.002Z,0.00
2019-01-17T05:12:34.962Z,0.00
2019-01-17T05:13:34.924Z,0.00
2019-01-17T05:14:34.888Z,0.00
2019-01-17T05:15:34.850Z,0.00
2019-01-17T05:16:34.816Z,0.00
2019-01-17T05:17:34.778Z,0.00
2019-01-17T05:18:34.738Z,0.00
2019-01-17T05:19:34.706Z,0.00
2019-01-17T05:20:34.667Z,0.00
2019-01-17T05:21:34.639Z,0.00
2019-01-17T05:22:34.592Z,0.00
2019-01-17T05:23:34.558Z,0.00
2019-01-17T05:24:34.520Z,0.00
2019-01-17T05:25:34.482Z,0.00
2019-01-17T05:26:34.446Z,0.00
2019-01-17T05:27:34.405Z,0.00
2019-01-17T05:28:34.401Z,0.00
2019-01-17T05:29:34.346Z,0.00
2019-01-17T05:30:34.300Z,0.00
2019-01-17T05:31:34.256Z,0.00
2019-01-17T05:32:36.826Z,0.00
2019-01-17T05:33:34.189Z,0.00
2019-01-17T05:34:39.381Z,0.00
2019-01-17T05:35:34.110Z,0.00
2019-01-17T05:36:34.071Z,0.00
2019-01-17T05:37:34.033Z,0.00
2019-01-17T05:38:34.002Z,0.00
2019-01-17T05:39:33.965Z,0.00
2019-01-17T05:40:33.924Z,0.00
2019-01-17T05:41:33.885Z,0.00
2019-01-17T05:42:33.847Z,0.00
2019-01-17T05:43:33.809Z,0.00
2019-01-17T05:44:33.775Z,0.00
2019-01-17T05:45:33.751Z,0.00
2019-01-17T05:46:33.702Z,0.00
2019-01-17T05:47:33.669Z,0.00
2019-01-17T05:48:33.641Z,0.00
2019-01-17T05:49:33.599Z,0.00
2019-01-17T05:50:33.550Z,0.00
2019-01-17T05:51:33.523Z,0.00
2019-01-17T05:52:33.486Z,0.00
2019-01-17T05:53:33.440Z,0.00
2019-01-17T05:54:33.410Z,0.00
2019-01-17T05:55:33.374Z,0.00
2019-01-17T05:56:33.334Z,0.00
2019-01-17T05:57:33.310Z,0.00
2019-01-17T05:58:33.260Z,0.00
2019-01-17T05:59:33.222Z,0.00
2019-01-17T06:00:33.186Z,0.00
2019-01-17T06:01:33.162Z,0.00
2019-01-17T06:02:33.122Z,0.00
2019-01-17T06:03:33.082Z,0.00
2019-01-17T06:04:33.045Z,0.00
2019-01-17T06:05:33.010Z,0.00
2019-01-17T06:06:33.304Z,0.00
2019-01-17T06:07:32.931Z,0.00
2019-01-17T06:08:32.890Z,0.00
2019-01-17T06:09:32.856Z,0.00
2019-01-17T06:10:32.822Z,0.00
2019-01-17T06:11:32.793Z,0.00
2019-01-17T06:12:32.751Z,0.00
2019-01-17T06:13:32.707Z,0.00
2019-01-17T06:14:32.674Z,0.00
2019-01-17T06:15:32.627Z,0.00
2019-01-17T06:16:32.593Z,0.00
2019-01-17T06:17:32.566Z,0.00
2019-01-17T06:18:32.522Z,0.00
2019-01-17T06:19:32.487Z,0.00
2019-01-17T06:20:32.460Z,0.00
2019-01-17T06:21:32.413Z,0.00
2019-01-17T06:22:32.383Z,0.00
2019-01-17T06:23:32.343Z,0.00
2019-01-17T06:24:32.297Z,0.00
2019-01-17T06:25:32.273Z,0.00
2019-01-17T06:26:32.229Z,0.00
2019-01-17T06:27:32.191Z,0.00
2019-01-17T06:28:32.157Z,0.00
2019-01-17T06:29:32.114Z,0.00
2019-01-17T06:30:32.083Z,0.00
2019-01-17T06:31:32.058Z,0.00
2019-01-17T06:32:32.006Z,0.00
2019-01-17T06:33:31.971Z,0.00
2019-01-17T06:34:31.937Z,0.00
2019-01-17T06:35:31.895Z,0.00
2019-01-17T06:36:31.863Z,0.00
2019-01-17T06:37:31.828Z,0.00
2019-01-17T06:38:31.787Z,0.00
2019-01-17T06:39:31.747Z,0.00
2019-01-17T06:40:31.712Z,0.00
2019-01-17T06:41:31.678Z,0.00
2019-01-17T06:42:31.633Z,0.00
2019-01-17T06:43:31.609Z,0.00
2019-01-17T06:44:31.560Z,0.00
2019-01-17T06:45:31.529Z,0.00
2019-01-17T06:46:31.494Z,0.00
2019-01-17T06:47:31.461Z,0.00
2019-01-17T06:48:31.424Z,0.00
2019-01-17T06:49:31.383Z,0.00
2019-01-17T06:50:31.344Z,0.00
2019-01-17T06:51:31.307Z,0.00
2019-01-17T06:52:31.270Z,0.00
2019-01-17T06:53:31.228Z,0.00
2019-01-17T06:54:31.194Z,0.00
2019-01-17T06:55:34.579Z,0.00
2019-01-17T06:56:31.114Z,0.00
2019-01-17T06:57:31.089Z,0.00
2019-01-17T06:58:31.049Z,0.00
2019-01-17T06:59:31.004Z,0.00
2019-01-17T07:00:30.983Z,0.00
2019-01-17T07:01:30.934Z,0.00
2019-01-17T07:02:30.907Z,4.00
2019-01-17T07:03:30.869Z,0.00
2019-01-17T07:04:30.824Z,0.00
2019-01-17T07:05:30.795Z,4.00
2019-01-17T07:06:30.753Z,4.00
2019-01-17T07:07:30.714Z,8.00
2019-01-17T07:08:30.680Z,8.00
2019-01-17T07:09:30.644Z,8.00
2019-01-17T07:10:30.615Z,12.00
2019-01-17T07:11:30.565Z,12.00
2019-01-17T07:12:30.530Z,12.00
2019-01-17T07:13:30.488Z,20.00
2019-01-17T07:14:30.450Z,28.00
2019-01-17T07:15:30.410Z,32.00
2019-01-17T07:16:30.386Z,36.00
2019-01-17T07:17:30.345Z,40.00
2019-01-17T07:18:30.310Z,52.00
2019-01-17T07:19:30.269Z,60.00
2019-01-17T07:20:30.235Z,64.00
2019-01-17T07:21:30.194Z,72.00
2019-01-17T07:22:30.161Z,80.00
2019-01-17T07:23:30.120Z,84.00
2019-01-17T07:24:30.084Z,96.00
2019-01-17T07:25:30.046Z,100.00
2019-01-17T07:26:30.009Z,112.00
2019-01-17T07:27:29.974Z,120.00
2019-01-17T07:28:29.940Z,128.00
2019-01-17T07:29:29.901Z,140.00
2019-01-17T07:30:29.856Z,148.00
2019-01-17T07:31:29.826Z,156.00
2019-01-17T07:32:29.786Z,168.00
2019-01-17T07:33:29.749Z,180.00
2019-01-17T07:34:29.710Z,192.00
2019-01-17T07:35:29.680Z,204.00
2019-01-17T07:36:29.631Z,212.00
2019-01-17T07:37:29.622Z,228.00
2019-01-17T07:38:29.567Z,240.00
2019-01-17T07:39:29.526Z,252.00
2019-01-17T07:40:29.491Z,264.00
2019-01-17T07:41:29.462Z,280.00
2019-01-17T07:42:29.412Z,300.00
2019-01-17T07:43:29.379Z,320.00
2019-01-17T07:44:29.335Z,348.00
2019-01-17T07:45:29.302Z,372.00
2019-01-17T07:46:29.268Z,408.00
2019-01-17T07:47:29.240Z,448.00
2019-01-17T07:48:29.187Z,480.00
2019-01-17T07:49:29.165Z,504.00
2019-01-17T07:50:29.132Z,536.00
2019-01-17T07:51:29.090Z,580.00
2019-01-17T07:52:30.357Z,636.00
2019-01-17T07:53:29.008Z,680.00
2019-01-17T07:54:28.967Z,724.00
2019-01-17T07:55:28.932Z,772.00
2019-01-17T07:56:28.892Z,732.00
2019-01-17T07:57:28.857Z,692.00
2019-01-17T07:58:28.826Z,712.00
2019-01-17T07:59:28.782Z,776.00
2019-01-17T08:00:28.745Z,828.00
2019-01-17T08:01:28.715Z,896.00
2019-01-17T08:02:28.673Z,944.00
2019-01-17T08:03:28.631Z,964.00
2019-01-17T08:04:28.593Z,956.00
2019-01-17T08:05:28.565Z,976.00
2019-01-17T08:06:28.530Z,1000.00
2019-01-17T08:07:28.487Z,1000.00
2019-01-17T08:08:28.446Z,1124.00
2019-01-17T08:09:28.418Z,1252.00
2019-01-17T08:10:28.381Z,1344.00
2019-01-17T08:11:28.342Z,1400.00
2019-01-17T08:12:28.308Z,1444.00
2019-01-17T08:13:28.263Z,1532.00
2019-01-17T08:14:28.223Z,1628.00
2019-01-17T08:15:28.196Z,1720.00
2019-01-17T08:16:28.153Z,1748.00
2019-01-17T08:17:28.118Z,1708.00
2019-01-17T08:18:28.082Z,1764.00
2019-01-17T08:19:28.041Z,1760.00
2019-01-17T08:20:28.002Z,1620.00
2019-01-17T08:21:27.969Z,1456.00
2019-01-17T08:22:27.937Z,1320.00
2019-01-17T08:23:27.902Z,1272.00
2019-01-17T08:24:27.862Z,1400.00
2019-01-17T08:25:27.819Z,1580.00
2019-01-17T08:26:27.773Z,1684.00
2019-01-17T08:27:27.757Z,928.00
2019-01-17T08:28:27.703Z,932.00
2019-01-17T08:29:27.674Z,1188.00
2019-01-17T08:30:27.652Z,1532.00
2019-01-17T08:31:27.614Z,1668.00
2019-01-17T08:32:27.560Z,1868.00
2019-01-17T08:33:27.527Z,2216.00
2019-01-17T08:34:28.421Z,2880.00
2019-01-17T08:35:27.449Z,3076.00
2019-01-17T08:36:27.427Z,2608.00
2019-01-17T08:37:27.377Z,2076.00
2019-01-17T08:38:27.334Z,1912.00
2019-01-17T08:39:27.313Z,1944.00
2019-01-17T08:40:27.260Z,2004.00
2019-01-17T08:41:27.239Z,1496.00
2019-01-17T08:42:27.198Z,2028.00
2019-01-17T08:43:27.161Z,1840.00
2019-01-17T08:44:27.121Z,1224.00
2019-01-17T08:45:27.094Z,1268.00
2019-01-17T08:46:27.049Z,1208.00
2019-01-17T08:47:27.019Z,1360.00
2019-01-17T08:48:26.974Z,1456.00
2019-01-17T08:49:26.940Z,1624.00
2019-01-17T08:50:28.007Z,1732.00
2019-01-17T08:51:26.864Z,1564.00
2019-01-17T08:52:26.838Z,1276.00
2019-01-17T08:53:26.800Z,1440.00
2019-01-17T08:54:26.759Z,1456.00
2019-01-17T08:55:26.726Z,1360.00
2019-01-17T08:56:26.686Z,1520.00
2019-01-17T08:57:26.658Z,1752.00
2019-01-17T08:58:26.619Z,1616.00
2019-01-17T08:59:26.584Z,2212.00
2019-01-17T09:00:26.544Z,1616.00
2019-01-17T09:01:26.506Z,1644.00
2019-01-17T09:02:26.476Z,1924.00
2019-01-17T09:03:26.432Z,2544.00
2019-01-17T09:04:26.400Z,3364.00
2019-01-17T09:05:26.365Z,3096.00
2019-01-17T09:06:26.325Z,2944.00
2019-01-17T09:07:26.283Z,1972.00
2019-01-17T09:08:26.246Z,1236.00
2019-01-17T09:09:26.219Z,1164.00
2019-01-17T09:10:26.180Z,1164.00
2019-01-17T09:11:26.139Z,932.00
2019-01-17T09:12:26.111Z,988.00
2019-01-17T09:13:26.067Z,1060.00
2019-01-17T09:14:26.032Z,1400.00
2019-01-17T09:15:26.009Z,2008.00
2019-01-17T09:16:25.974Z,1576.00
2019-01-17T09:17:25.929Z,2124.00
2019-01-17T09:18:25.887Z,2224.00
2019-01-17T09:19:25.855Z,1468.00
2019-01-17T09:20:25.822Z,1380.00
2019-01-17T09:21:25.781Z,1308.00
2019-01-17T09:22:25.746Z,1060.00
2019-01-17T09:23:25.712Z,952.00
2019-01-17T09:24:25.677Z,1020.00
2019-01-17T09:25:25.637Z,1084.00
2019-01-17T09:26:25.601Z,1176.00
2019-01-17T09:27:25.562Z,1072.00
2019-01-17T09:28:25.526Z,1156.00
2019-01-17T09:29:25.500Z,1536.00
2019-01-17T09:30:25.460Z,1584.00
2019-01-17T09:31:25.426Z,1140.00
2019-01-17T09:32:25.387Z,968.00
2019-01-17T09:33:25.345Z,884.00
2019-01-17T09:34:25.320Z,1224.00
2019-01-17T09:35:25.273Z,1328.00
2019-01-17T09:36:25.242Z,1300.00
2019-01-17T09:37:25.210Z,1216.00
2019-01-17T09:38:25.173Z,1208.00
2019-01-17T09:39:25.137Z,992.00
2019-01-17T09:40:25.100Z,1012.00
2019-01-17T09:41:25.066Z,1212.00
2019-01-17T09:42:25.027Z,1076.00
2019-01-17T09:43:24.998Z,1072.00
2019-01-17T09:44:24.956Z,956.00
2019-01-17T09:45:24.913Z,1036.00
2019-01-17T09:46:24.885Z,1364.00
2019-01-17T09:47:24.847Z,1628.00
2019-01-17T09:48:24.807Z,1704.00
2019-01-17T09:49:24.777Z,1656.00
2019-01-17T09:50:24.739Z,1348.00
2019-01-17T09:51:24.701Z,1496.00
2019-01-17T09:52:24.661Z,1716.00
2019-01-17T09:53:24.628Z,1524.00
2019-01-17T09:54:24.598Z,2556.00
2019-01-17T09:55:24.558Z,15564.00
2019-01-17T09:56:24.526Z,1516.00
2019-01-17T09:57:24.484Z,1740.00
2019-01-17T09:58:24.452Z,2276.00
2019-01-17T09:59:24.427Z,2632.00
2019-01-17T10:00:24.369Z,2904.00
2019-01-17T10:01:24.347Z,2640.00
2019-01-17T10:02:24.313Z,3632.00
2019-01-17T10:03:24.268Z,7016.00
2019-01-17T10:04:26.605Z,6616.00
2019-01-17T10:05:24.208Z,2956.00
2019-01-17T10:06:24.169Z,7084.00
2019-01-17T10:07:24.133Z,2324.00
2019-01-17T10:08:24.083Z,2652.00
2019-01-17T10:09:24.065Z,2788.00
2019-01-17T10:10:24.111Z,1196.00
2019-01-17T10:11:23.983Z,1176.00
2019-01-17T10:12:23.943Z,1644.00
2019-01-17T10:13:23.914Z,1600.00
2019-01-17T10:14:23.878Z,1216.00
2019-01-17T10:15:23.877Z,1388.00
2019-01-17T10:16:23.817Z,1460.00
2019-01-17T10:17:23.774Z,1052.00
2019-01-17T10:18:23.735Z,1168.00
2019-01-17T10:19:23.703Z,1180.00
2019-01-17T10:20:23.657Z,1020.00
2019-01-17T10:21:23.628Z,960.00
2019-01-17T10:22:23.602Z,1100.00
2019-01-17T10:23:23.560Z,908.00
2019-01-17T10:24:23.529Z,672.00
2019-01-17T10:25:23.489Z,916.00
2019-01-17T10:26:23.454Z,940.00
2019-01-17T10:27:23.423Z,968.00
2019-01-17T10:28:23.374Z,1068.00
2019-01-17T10:29:23.345Z,1252.00
2019-01-17T10:30:23.319Z,1096.00
2019-01-17T10:31:23.274Z,1088.00
2019-01-17T10:32:23.237Z,1068.00
2019-01-17T10:33:23.193Z,1024.00
2019-01-17T10:34:23.165Z,928.00
2019-01-17T10:35:23.123Z,1044.00
2019-01-17T10:36:23.094Z,1096.00
2019-01-17T10:37:23.054Z,1324.00
2019-01-17T10:38:23.018Z,1056.00
2019-01-17T10:39:22.984Z,968.00
2019-01-17T10:40:22.944Z,960.00
2019-01-17T10:41:22.928Z,1116.00
2019-01-17T10:42:22.883Z,1336.00
2019-01-17T10:43:22.838Z,1620.00
2019-01-17T10:44:22.804Z,1196.00
2019-01-17T10:45:22.766Z,1332.00
2019-01-17T10:46:22.735Z,1292.00
2019-01-17T10:47:22.701Z,1480.00
2019-01-17T10:48:22.659Z,2092.00
2019-01-17T10:49:22.626Z,3068.00
2019-01-17T10:50:22.585Z,3776.00
2019-01-17T10:51:22.546Z,5752.00
2019-01-17T10:52:22.510Z,8512.00
2019-01-17T10:53:22.474Z,4624.00
2019-01-17T10:54:22.442Z,4680.00
2019-01-17T10:55:22.414Z,3700.00
2019-01-17T10:56:27.749Z,3604.00
2019-01-17T10:57:22.333Z,2436.00
2019-01-17T10:58:22.291Z,2728.00
2019-01-17T10:59:22.253Z,2356.00
2019-01-17T11:00:22.221Z,3200.00
2019-01-17T11:01:22.191Z,3232.00
2019-01-17T11:02:22.156Z,2836.00
2019-01-17T11:03:22.110Z,3444.00
2019-01-17T11:04:22.073Z,4172.00
2019-01-17T11:05:22.035Z,4468.00
2019-01-17T11:06:22.005Z,5332.00
2019-01-17T11:07:21.960Z,3240.00
2019-01-17T11:08:21.936Z,2756.00
2019-01-17T11:09:21.897Z,2452.00
2019-01-17T11:10:21.863Z,1708.00
2019-01-17T11:11:21.827Z,1448.00
2019-01-17T11:12:21.783Z,1212.00
2019-01-17T11:13:21.752Z,932.00
2019-01-17T11:14:21.712Z,912.00
2019-01-17T11:15:21.681Z,796.00
2019-01-17T11:16:21.645Z,836.00
2019-01-17T11:17:21.607Z,740.00
2019-01-17T11:18:21.571Z,884.00
2019-01-17T11:19:21.531Z,1088.00
2019-01-17T11:20:21.501Z,1100.00
2019-01-17T11:21:21.461Z,1244.00
2019-01-17T11:22:21.421Z,1308.00
2019-01-17T11:23:21.382Z,1276.00
2019-01-17T11:24:21.346Z,1416.00
2019-01-17T11:25:21.321Z,1412.00
2019-01-17T11:26:21.286Z,1768.00
2019-01-17T11:27:21.240Z,1928.00
2019-01-17T11:28:21.226Z,1780.00
2019-01-17T11:29:21.161Z,1676.00
2019-01-17T11:30:21.157Z,1596.00
2019-01-17T11:31:21.102Z,1724.00
2019-01-17T11:32:21.054Z,1588.00
2019-01-17T11:33:21.026Z,1436.00
2019-01-17T11:34:20.998Z,1268.00
2019-01-17T11:35:20.952Z,1124.00
2019-01-17T11:36:20.903Z,1072.00
2019-01-17T11:37:20.866Z,780.00
2019-01-17T11:38:20.839Z,788.00
2019-01-17T11:39:20.796Z,836.00
2019-01-17T11:40:20.754Z,868.00
2019-01-17T11:41:20.723Z,892.00
2019-01-17T11:42:20.684Z,916.00
2019-01-17T11:43:20.649Z,788.00
2019-01-17T11:44:20.614Z,1004.00
2019-01-17T11:45:20.578Z,1032.00
2019-01-17T11:46:20.546Z,1128.00
2019-01-17T11:47:20.509Z,872.00
2019-01-17T11:48:20.463Z,752.00
2019-01-17T11:49:20.428Z,808.00
2019-01-17T11:50:20.405Z,776.00
2019-01-17T11:51:20.358Z,852.00
2019-01-17T11:52:20.321Z,1048.00
2019-01-17T11:53:20.279Z,1240.00
2019-01-17T11:54:20.253Z,1056.00
2019-01-17T11:55:20.217Z,1052.00
2019-01-17T11:56:20.172Z,1204.00
2019-01-17T11:57:20.132Z,956.00
2019-01-17T11:58:20.098Z,996.00
2019-01-17T11:59:20.058Z,1316.00
2019-01-17T12:00:20.027Z,1508.00
2019-01-17T12:01:19.978Z,1216.00
2019-01-17T12:02:19.953Z,1100.00
2019-01-17T12:03:19.909Z,820.00
2019-01-17T12:04:19.876Z,792.00
2019-01-17T12:05:19.840Z,808.00
2019-01-17T12:06:19.803Z,712.00
2019-01-17T12:07:19.764Z,716.00
2019-01-17T12:08:19.724Z,712.00
2019-01-17T12:09:19.744Z,632.00
2019-01-17T12:10:19.644Z,580.00
2019-01-17T12:11:19.614Z,584.00
2019-01-17T12:12:19.577Z,588.00
2019-01-17T12:13:19.534Z,580.00
2019-01-17T12:14:19.503Z,560.00
2019-01-17T12:15:19.464Z,676.00
2019-01-17T12:16:19.423Z,764.00
2019-01-17T12:17:19.396Z,644.00
2019-01-17T12:18:19.351Z,592.00
2019-01-17T12:19:19.314Z,588.00
2019-01-17T12:20:19.270Z,596.00
2019-01-17T12:21:19.244Z,528.00
2019-01-17T12:22:19.208Z,540.00
2019-01-17T12:23:19.161Z,520.00
2019-01-17T12:24:19.125Z,532.00
2019-01-17T12:25:19.096Z,556.00
2019-01-17T12:26:19.041Z,520.00
2019-01-17T12:27:19.020Z,588.00
2019-01-17T12:28:18.974Z,592.00
2019-01-17T12:29:18.930Z,552.00
2019-01-17T12:30:18.904Z,496.00
2019-01-17T12:31:18.865Z,660.00
2019-01-17T12:32:18.829Z,936.00
2019-01-17T12:33:18.821Z,1132.00
2019-01-17T12:34:18.744Z,1208.00
2019-01-17T12:35:18.716Z,1256.00
2019-01-17T12:36:18.682Z,1276.00
2019-01-17T12:37:18.639Z,1340.00
2019-01-17T12:38:18.601Z,1384.00
2019-01-17T12:39:18.567Z,1380.00
2019-01-17T12:40:18.514Z,1240.00
2019-01-17T12:41:18.492Z,1064.00
2019-01-17T12:42:18.448Z,1324.00
2019-01-17T12:43:18.421Z,1660.00
2019-01-17T12:44:18.384Z,1844.00
2019-01-17T12:45:18.336Z,1692.00
2019-01-17T12:46:18.291Z,1456.00
2019-01-17T12:47:18.256Z,1396.00
2019-01-17T12:48:18.226Z,1340.00
2019-01-17T12:49:18.178Z,1324.00